createdAt,value
2022-08-25T00:01:37.941Z,101322.47
2022-08-25T00:04:10.997Z,101315.91
2022-08-25T00:06:41.775Z,101324.13
2022-08-25T00:09:10.611Z,101324.75
2022-08-25T00:11:38.783Z,101324.56
2022-08-25T00:14:09.780Z,101317.16
2022-08-25T00:16:36.422Z,101313.16
2022-08-25T00:19:08.188Z,101320.09
2022-08-25T00:21:34.865Z,101311.25
2022-08-25T00:24:02.368Z,101321.34
2022-08-25T00:26:30.520Z,101318.53
2022-08-25T00:29:01.763Z,101324.84
2022-08-25T00:31:38.435Z,101315.56
2022-08-25T00:34:11.331Z,101316.50
2022-08-25T00:36:38.627Z,101320.28
2022-08-25T00:39:07.345Z,101317.91
2022-08-25T00:41:35.457Z,101321.88
2022-08-25T00:44:04.731Z,101315.69
2022-08-25T00:46:37.827Z,101314.84
2022-08-25T00:49:17.965Z,101318.09
2022-08-25T00:51:57.114Z,101315.19
2022-08-25T00:54:31.072Z,101315.84
2022-08-25T00:56:59.653Z,101305.53
2022-08-25T00:59:26.546Z,101301.75
2022-08-25T01:01:54.387Z,101296.91
2022-08-25T01:04:21.669Z,101303.25
2022-08-25T01:06:48.722Z,101289.97
2022-08-25T01:09:15.700Z,101306.81
2022-08-25T01:11:44.362Z,101294.78
2022-08-25T01:14:12.489Z,101297.13
2022-08-25T01:16:39.745Z,101297.97
2022-08-25T01:19:07.391Z,101296.69
2022-08-25T01:21:41.596Z,101300.19
2022-08-25T01:24:10.321Z,101291.53
2022-08-25T01:26:36.981Z,101295.50
2022-08-25T01:29:22.767Z,101294.00
2022-08-25T01:31:51.106Z,101298.22
2022-08-25T01:34:19.219Z,101292.31
2022-08-25T01:36:46.138Z,101293.41
2022-08-25T01:39:13.582Z,101289.81
2022-08-25T01:41:40.098Z,101287.09
2022-08-25T01:44:06.725Z,101296.09
2022-08-25T01:46:37.605Z,101292.88
2022-08-25T01:49:06.821Z,101300.19
2022-08-25T01:51:38.582Z,101301.63
2022-08-25T01:54:05.661Z,101299.50
2022-08-25T01:56:32.172Z,101303.03
2022-08-25T01:58:58.768Z,101307.03
2022-08-25T02:01:26.362Z,101304.69
2022-08-25T02:03:54.643Z,101308.88
2022-08-25T02:06:32.190Z,101314.72
2022-08-25T02:09:04.765Z,101307.72
2022-08-25T02:11:32.386Z,101304.16
2022-08-25T02:13:59.332Z,101306.25
2022-08-25T02:16:29.598Z,101304.75
2022-08-25T02:18:56.830Z,101302.84
2022-08-25T02:21:23.885Z,101288.72
2022-08-25T02:23:50.648Z,101285.97
2022-08-25T02:26:19.165Z,101281.34
2022-08-25T02:28:50.967Z,101280.13
2022-08-25T02:31:19.540Z,101276.78
2022-08-25T02:33:46.120Z,101280.19
2022-08-25T02:36:12.736Z,101277.63
2022-08-25T02:38:39.908Z,101278.13
2022-08-25T02:41:15.093Z,101275.41
2022-08-25T02:43:42.832Z,101274.16
2022-08-25T02:46:11.502Z,101271.25
2022-08-25T02:48:38.998Z,101269.34
2022-08-25T02:51:06.656Z,101270.41
2022-08-25T02:53:33.802Z,101275.28
2022-08-25T02:56:00.524Z,101267.28
2022-08-25T02:58:27.071Z,101267.31
2022-08-25T03:00:53.626Z,101266.09
2022-08-25T03:03:20.751Z,101271.13
2022-08-25T03:05:47.820Z,101270.47
2022-08-25T03:08:14.543Z,101267.94
2022-08-25T03:10:41.374Z,101276.75
2022-08-25T03:13:08.162Z,101270.41
2022-08-25T03:15:37.984Z,101275.22
2022-08-25T03:18:06.125Z,101268.06
2022-08-25T03:20:35.728Z,101265.13
2022-08-25T03:23:03.888Z,101262.19
2022-08-25T03:25:49.194Z,101263.41
2022-08-25T03:28:15.889Z,101249.72
2022-08-25T03:30:42.756Z,101259.03
2022-08-25T03:33:09.412Z,101265.16
2022-08-25T03:35:36.212Z,101259.28
2022-08-25T03:38:03.635Z,101265.19
2022-08-25T03:40:30.345Z,101267.75
2022-08-25T03:42:57.374Z,101267.31
2022-08-25T03:45:25.270Z,101260.41
2022-08-25T03:47:53.143Z,101254.53
2022-08-25T03:50:21.613Z,101256.22
2022-08-25T03:52:56.212Z,101250.50
2022-08-25T03:55:24.312Z,101255.34
2022-08-25T03:57:52.405Z,101260.41
2022-08-25T04:00:19.668Z,101261.00
2022-08-25T04:02:47.043Z,101255.72
2022-08-25T04:05:13.759Z,101250.06
2022-08-25T04:07:42.508Z,101243.25
2022-08-25T04:10:10.461Z,101245.16
2022-08-25T04:12:37.855Z,101243.78
2022-08-25T04:15:05.637Z,101243.91
2022-08-25T04:17:32.443Z,101241.31
2022-08-25T04:19:59.813Z,101246.56
2022-08-25T04:22:26.399Z,101253.88
2022-08-25T04:24:56.592Z,101245.56
2022-08-25T04:27:23.238Z,101256.50
2022-08-25T04:29:49.815Z,101252.28
2022-08-25T04:32:16.411Z,101252.28
2022-08-25T04:34:43.546Z,101253.41
2022-08-25T04:37:10.232Z,101254.28
2022-08-25T04:39:36.802Z,101262.56
2022-08-25T04:42:04.228Z,101263.66
2022-08-25T04:44:31.902Z,101264.97
2022-08-25T04:46:59.460Z,101260.78
2022-08-25T04:49:26.264Z,101266.50
2022-08-25T04:51:52.922Z,101260.47
2022-08-25T04:54:23.181Z,101262.19
2022-08-25T04:56:54.671Z,101258.84
2022-08-25T04:59:29.395Z,101259.50
2022-08-25T05:01:58.707Z,101251.94
2022-08-25T05:04:28.398Z,101253.06
2022-08-25T05:06:56.428Z,101242.97
2022-08-25T05:09:23.352Z,101242.78
2022-08-25T05:11:51.767Z,101242.97
2022-08-25T05:14:21.735Z,101242.38
2022-08-25T05:16:52.446Z,101243.69
2022-08-25T05:19:19.517Z,101247.94
2022-08-25T05:21:46.109Z,101248.41
2022-08-25T05:27:53.133Z,101245.28
2022-08-25T05:30:19.885Z,101255.22
2022-08-25T05:32:46.678Z,101257.75
2022-08-25T05:35:13.582Z,101260.72
2022-08-25T05:37:40.236Z,101263.06
2022-08-25T05:40:08.651Z,101262.88
2022-08-25T05:42:35.688Z,101263.31
2022-08-25T05:45:02.315Z,101265.09
2022-08-25T05:47:28.944Z,101259.81
2022-08-25T05:49:56.232Z,101262.81
2022-08-25T05:52:23.394Z,101258.38
2022-08-25T05:54:50.126Z,101263.03
2022-08-25T05:57:16.675Z,101266.22
2022-08-25T06:00:04.994Z,101261.00
2022-08-25T06:02:44.734Z,101266.69
2022-08-25T06:05:20.256Z,101269.25
2022-08-25T06:07:47.997Z,101279.19
2022-08-25T06:10:15.270Z,101268.69
2022-08-25T06:12:44.822Z,101263.00
2022-08-25T06:15:14.098Z,101273.34
2022-08-25T06:17:42.839Z,101271.03
2022-08-25T06:20:11.755Z,101269.13
2022-08-25T06:22:38.344Z,101269.56
2022-08-25T06:25:05.621Z,101265.97
2022-08-25T06:27:32.258Z,101263.44
2022-08-25T06:29:58.869Z,101271.25
2022-08-25T06:32:36.082Z,101274.41
2022-08-25T06:38:43.518Z,101266.38
2022-08-25T06:41:14.036Z,101265.53
2022-08-25T06:43:46.963Z,101258.50
2022-08-25T06:46:18.447Z,101264.22
2022-08-25T06:48:45.250Z,101268.22
2022-08-25T06:51:15.072Z,101258.25
2022-08-25T06:53:43.197Z,101260.34
2022-08-25T06:56:10.196Z,101258.84
2022-08-25T06:58:37.394Z,101258.38
2022-08-25T07:01:20.165Z,101264.69
2022-08-25T07:03:47.656Z,101260.25
2022-08-25T07:06:18.359Z,101262.94
2022-08-25T07:08:48.154Z,101258.88
2022-08-25T07:11:16.514Z,101255.84
2022-08-25T07:13:45.270Z,101247.34
2022-08-25T07:16:12.016Z,101250.53
2022-08-25T07:18:38.789Z,101256.19
2022-08-25T07:21:05.892Z,101248.34
2022-08-25T07:23:36.340Z,101250.44
2022-08-25T07:26:37.343Z,101250.84
2022-08-25T07:29:11.079Z,101257.34
2022-08-25T07:31:38.038Z,101248.19
2022-08-25T07:34:25.608Z,101260.00
2022-08-25T07:36:53.337Z,101254.44
2022-08-25T07:39:22.016Z,101259.03
2022-08-25T07:41:51.908Z,101253.47
2022-08-25T07:45:10.306Z,101260.25
2022-08-25T07:47:38.011Z,101256.81
2022-08-25T07:50:11.851Z,101261.88
2022-08-25T07:52:40.579Z,101256.53
2022-08-25T07:55:08.464Z,101255.00
2022-08-25T07:57:40.214Z,101258.78
2022-08-25T08:00:08.309Z,101266.34
2022-08-25T08:02:38.419Z,101269.50
2022-08-25T08:05:09.577Z,101262.69
2022-08-25T08:07:43.192Z,101269.63
2022-08-25T08:13:00.006Z,101273.16
2022-08-25T08:15:29.973Z,101281.81
2022-08-25T08:19:11.408Z,101282.22
2022-08-25T08:21:39.636Z,101277.09
2022-08-25T08:24:14.853Z,101274.94
2022-08-25T08:26:58.724Z,101276.22
2022-08-25T08:29:25.955Z,101283.69
2022-08-25T08:31:53.378Z,101277.56
2022-08-25T08:34:24.739Z,101284.13
2022-08-25T08:36:51.637Z,101283.97
2022-08-25T08:39:18.267Z,101280.53
2022-08-25T08:42:17.441Z,101285.34
2022-08-25T08:44:44.260Z,101283.31
2022-08-25T08:47:26.619Z,101288.38
2022-08-25T08:50:30.713Z,101286.06
2022-08-25T08:53:37.475Z,101281.03
2022-08-25T08:56:12.469Z,101275.63
2022-08-25T08:58:46.727Z,101282.16
2022-08-25T09:01:27.397Z,101281.84
2022-08-25T09:04:06.457Z,101274.31
2022-08-25T09:06:45.357Z,101285.88
2022-08-25T09:09:13.249Z,101281.75
2022-08-25T09:11:52.007Z,101270.88
2022-08-25T09:14:34.099Z,101278.38
2022-08-25T09:17:46.136Z,101268.31
2022-08-25T09:21:09.008Z,101275.72
2022-08-25T09:23:42.205Z,101266.81
2022-08-25T09:30:19.777Z,101260.22
2022-08-25T09:32:52.458Z,101262.44
2022-08-25T09:35:27.652Z,101263.97
2022-08-25T09:38:04.489Z,101263.28
2022-08-25T09:40:36.983Z,101257.31
2022-08-25T09:43:09.534Z,101253.00
2022-08-25T09:45:36.084Z,101253.16
2022-08-25T09:48:03.255Z,101256.63
2022-08-25T09:50:34.798Z,101255.31
2022-08-25T09:53:17.556Z,101251.72
2022-08-25T09:55:47.737Z,101238.50
2022-08-25T09:58:20.010Z,101248.25
2022-08-25T10:04:34.006Z,101248.88
2022-08-25T10:07:02.907Z,101250.59
2022-08-25T10:09:41.824Z,101255.84
2022-08-25T10:12:21.792Z,101243.97
2022-08-25T10:14:54.534Z,101251.66
2022-08-25T10:17:33.622Z,101248.19
2022-08-25T10:20:15.449Z,101242.16
2022-08-25T10:22:43.298Z,101241.81
2022-08-25T10:25:13.214Z,101233.28
2022-08-25T10:28:11.187Z,101224.28
2022-08-25T10:30:49.835Z,101225.00
2022-08-25T10:33:28.817Z,101222.47
2022-08-25T10:36:33.169Z,101225.84
2022-08-25T10:39:02.017Z,101230.41
2022-08-25T10:41:53.444Z,101217.19
2022-08-25T10:44:48.478Z,101218.63
2022-08-25T10:47:37.856Z,101221.38
2022-08-25T10:50:23.593Z,101221.16
2022-08-25T10:52:59.269Z,101216.38
2022-08-25T10:55:43.429Z,101222.94
2022-08-25T10:58:30.765Z,101216.38
2022-08-25T11:01:07.491Z,101213.59
2022-08-25T11:03:46.121Z,101220.91
2022-08-25T11:06:32.463Z,101214.97
2022-08-25T11:13:01.839Z,101220.09
2022-08-25T11:15:33.844Z,101217.50
2022-08-25T11:18:13.955Z,101215.91
2022-08-25T11:21:00.902Z,101218.44
2022-08-25T11:23:32.404Z,101220.63
2022-08-25T11:26:06.696Z,101206.22
2022-08-25T11:28:44.019Z,101208.38
2022-08-25T11:31:10.993Z,101212.72
2022-08-25T11:33:41.368Z,101216.59
2022-08-25T11:36:13.966Z,101206.50
2022-08-25T11:38:48.075Z,101205.28
2022-08-25T11:41:29.998Z,101197.81
2022-08-25T11:44:05.752Z,101206.00
2022-08-25T11:46:53.043Z,101208.75
2022-08-25T11:49:50.970Z,101193.03
2022-08-25T11:52:32.673Z,101196.66
2022-08-25T11:55:07.475Z,101194.94
2022-08-25T11:57:36.951Z,101198.22
2022-08-25T12:03:43.907Z,101185.91
2022-08-25T12:06:13.605Z,101189.56
2022-08-25T12:09:00.198Z,101185.94
2022-08-25T12:11:51.984Z,101189.31
2022-08-25T12:14:22.019Z,101190.06
2022-08-25T12:16:51.566Z,101186.34
2022-08-25T12:19:31.621Z,101186.50
2022-08-25T12:22:18.938Z,101184.22
2022-08-25T12:24:57.507Z,101173.78
2022-08-25T12:27:38.189Z,101179.03
2022-08-25T12:30:18.621Z,101177.25
2022-08-25T12:33:32.863Z,101171.13
2022-08-25T12:36:00.247Z,101165.59
2022-08-25T12:38:50.919Z,101172.97
2022-08-25T12:41:24.351Z,101166.00
2022-08-25T12:43:54.459Z,101165.88
2022-08-25T12:46:21.221Z,101162.13
2022-08-25T12:48:57.021Z,101160.69
2022-08-25T12:51:32.851Z,101151.22
2022-08-25T12:54:35.412Z,101152.78
2022-08-25T12:57:16.557Z,101154.84
2022-08-25T12:59:47.038Z,101150.56
2022-08-25T13:02:34.224Z,101148.63
2022-08-25T13:05:10.132Z,101148.50
2022-08-25T13:08:05.087Z,101148.38
2022-08-25T13:10:51.273Z,101143.78
2022-08-25T13:13:44.733Z,101148.59
2022-08-25T13:16:29.673Z,101139.63
2022-08-25T13:18:59.527Z,101136.47
2022-08-25T13:21:41.060Z,101130.59
2022-08-25T13:24:14.461Z,101140.81
2022-08-25T13:26:48.167Z,101140.81
2022-08-25T13:29:40.708Z,101126.28
2022-08-25T13:32:12.787Z,101130.63
2022-08-25T13:34:43.078Z,101122.94
2022-08-25T13:37:31.208Z,101116.56
2022-08-25T13:40:18.772Z,101110.69
2022-08-25T13:42:55.836Z,101111.28
2022-08-25T13:45:25.535Z,101115.22
2022-08-25T13:47:55.980Z,101109.03
2022-08-25T13:50:32.675Z,101111.31
2022-08-25T13:53:04.214Z,101105.66
2022-08-25T13:55:50.731Z,101100.63
2022-08-25T13:58:24.685Z,101098.34
2022-08-25T14:01:22.613Z,101094.38
2022-08-25T14:04:21.129Z,101103.53
2022-08-25T14:06:48.356Z,101094.41
2022-08-25T14:09:17.911Z,101096.38
2022-08-25T14:11:56.565Z,101100.47
2022-08-25T14:14:23.179Z,101101.91
2022-08-25T14:16:50.135Z,101101.69
2022-08-25T14:19:21.758Z,101092.22
2022-08-25T14:21:49.649Z,101091.84
2022-08-25T14:24:23.351Z,101085.63
2022-08-25T14:26:54.013Z,101084.88
2022-08-25T14:29:22.254Z,101088.59
2022-08-25T14:31:49.477Z,101095.22
2022-08-25T14:34:28.709Z,101090.03
2022-08-25T14:36:55.852Z,101090.16
2022-08-25T14:39:22.584Z,101084.63
2022-08-25T14:41:52.518Z,101089.31
2022-08-25T14:44:20.502Z,101084.03
2022-08-25T14:46:54.218Z,101086.78
2022-08-25T14:49:29.781Z,101087.63
2022-08-25T14:51:57.752Z,101073.59
2022-08-25T14:54:27.101Z,101074.09
2022-08-25T14:56:53.960Z,101081.41
2022-08-25T14:59:20.659Z,101073.00
2022-08-25T15:01:47.554Z,101084.72
2022-08-25T15:04:23.482Z,101073.25
2022-08-25T15:06:53.399Z,101073.25
2022-08-25T15:09:21.151Z,101072.16
2022-08-25T15:11:50.927Z,101070.47
2022-08-25T15:14:28.764Z,101068.41
2022-08-25T15:17:00.500Z,101066.22
2022-08-25T15:19:27.511Z,101069.38
2022-08-25T15:21:57.713Z,101071.53
2022-08-25T15:24:26.790Z,101067.66
2022-08-25T15:26:56.093Z,101062.41
2022-08-25T15:29:26.308Z,101063.09
2022-08-25T15:31:53.168Z,101060.78
2022-08-25T15:34:19.926Z,101056.31
2022-08-25T15:36:46.910Z,101062.91
2022-08-25T15:39:14.707Z,101058.38
2022-08-25T15:41:44.579Z,101057.66
2022-08-25T15:44:12.465Z,101053.47
2022-08-25T15:46:40.383Z,101047.28
2022-08-25T15:49:07.969Z,101041.13
2022-08-25T15:51:34.916Z,101053.91
2022-08-25T15:54:01.642Z,101050.78
2022-08-25T15:56:28.394Z,101042.00
2022-08-25T15:58:55.610Z,101040.16
2022-08-25T16:01:30.513Z,101038.72
2022-08-25T16:03:57.533Z,101043.03
2022-08-25T16:06:27.059Z,101034.75
2022-08-25T16:08:54.207Z,101030.31
2022-08-25T16:11:24.528Z,101030.78
2022-08-25T16:13:52.326Z,101027.66
2022-08-25T16:16:21.660Z,101029.78
2022-08-25T16:18:48.670Z,101022.63
2022-08-25T16:21:19.536Z,101027.94
2022-08-25T16:23:46.956Z,101025.88
2022-08-25T16:26:16.171Z,101027.78
2022-08-25T16:28:44.954Z,101015.94
2022-08-25T16:31:14.394Z,101017.22
2022-08-25T16:36:20.679Z,101018.75
2022-08-25T16:38:49.358Z,101010.97
2022-08-25T16:41:22.469Z,101010.97
2022-08-25T16:43:49.519Z,100998.53
2022-08-25T16:46:18.002Z,101005.34
2022-08-25T16:48:44.863Z,101001.97
2022-08-25T16:51:19.394Z,100995.84
2022-08-25T16:54:08.229Z,100991.94
2022-08-25T16:56:36.544Z,100992.69
2022-08-25T16:59:06.300Z,100989.38
2022-08-25T17:01:36.529Z,100982.44
2022-08-25T17:04:04.287Z,100983.03
2022-08-25T17:06:35.403Z,100990.97
2022-08-25T17:09:01.897Z,100986.41
2022-08-25T17:11:31.369Z,100985.81
2022-08-25T17:13:59.371Z,100980.31
2022-08-25T17:16:29.917Z,100978.53
2022-08-25T17:19:00.635Z,100980.25
2022-08-25T17:21:30.597Z,100976.22
2022-08-25T17:23:57.975Z,100973.47
2022-08-25T17:26:28.002Z,100973.03
2022-08-25T17:28:59.682Z,100977.41
2022-08-25T17:31:27.460Z,100977.03
2022-08-25T17:33:55.298Z,100982.41
2022-08-25T17:36:26.879Z,100973.97
2022-08-25T17:38:54.704Z,100972.75
2022-08-25T17:41:23.911Z,100967.63
2022-08-25T17:43:50.519Z,100974.75
2022-08-25T17:46:17.615Z,100975.72
2022-08-25T17:48:44.837Z,100966.53
2022-08-25T17:51:12.737Z,100979.38
2022-08-25T17:53:43.643Z,100977.47
2022-08-25T17:56:15.715Z,100971.03
2022-08-25T17:58:44.484Z,100974.78
2022-08-25T18:01:19.869Z,100974.34
2022-08-25T18:03:49.261Z,100980.09
2022-08-25T18:06:16.268Z,100974.16
2022-08-25T18:08:43.770Z,100971.22
2022-08-25T18:11:10.562Z,100975.50
2022-08-25T18:13:38.216Z,100970.47
2022-08-25T18:16:05.771Z,100975.19
2022-08-25T18:18:34.435Z,100973.88
2022-08-25T18:21:01.696Z,100981.78
2022-08-25T18:23:28.716Z,100975.72
2022-08-25T18:26:00.893Z,100978.44
2022-08-25T18:28:28.776Z,100981.00
2022-08-25T18:30:55.823Z,100981.41
2022-08-25T18:33:23.012Z,100979.56
2022-08-25T18:35:49.616Z,100987.22
2022-08-25T18:38:34.575Z,100983.69
2022-08-25T18:41:04.890Z,100986.16
2022-08-25T18:43:33.980Z,100990.59
2022-08-25T18:46:03.412Z,100995.16
2022-08-25T18:48:31.649Z,100996.84
2022-08-25T18:51:00.884Z,101007.84
2022-08-25T18:53:30.398Z,100995.63
2022-08-25T18:56:05.004Z,100999.06
2022-08-25T18:58:31.647Z,100999.66
2022-08-25T19:00:58.247Z,100999.72
2022-08-25T19:03:25.048Z,101007.34
2022-08-25T19:05:57.192Z,101006.06
2022-08-25T19:08:24.893Z,101013.22
2022-08-25T19:10:53.569Z,101004.75
2022-08-25T19:13:22.831Z,101015.75
2022-08-25T19:15:50.423Z,101023.63
2022-08-25T19:18:19.299Z,101032.31
2022-08-25T19:20:52.898Z,101027.59
2022-08-25T19:23:19.835Z,101033.28
2022-08-25T19:25:46.748Z,101030.72
2022-08-25T19:28:13.714Z,101042.41
2022-08-25T19:30:50.515Z,101040.59
2022-08-25T19:33:42.070Z,101037.03
2022-08-25T19:36:08.585Z,101040.94
2022-08-25T19:38:37.127Z,101042.19
2022-08-25T19:41:10.782Z,101040.50
2022-08-25T19:43:55.438Z,101049.75
2022-08-25T19:46:24.224Z,101059.03
2022-08-25T19:48:50.971Z,101046.00
2022-08-25T19:51:19.138Z,101068.41
2022-08-25T19:53:54.298Z,101058.75
2022-08-25T19:56:22.412Z,101064.84
2022-08-25T19:58:49.036Z,101060.00
2022-08-25T20:01:16.583Z,101057.00
2022-08-25T20:03:45.026Z,101057.16
2022-08-25T20:06:11.886Z,101061.72
2022-08-25T20:08:42.527Z,101065.72
2022-08-25T20:11:09.084Z,101066.19
2022-08-25T20:13:35.587Z,101065.34
2022-08-25T20:16:03.117Z,101071.09
2022-08-25T20:18:32.368Z,101066.53
2022-08-25T20:20:59.033Z,101057.50
2022-08-25T20:23:43.932Z,101062.50
2022-08-25T20:26:10.467Z,101064.41
2022-08-25T20:28:37.060Z,101063.97
2022-08-25T20:31:04.159Z,101064.81
2022-08-25T20:33:32.856Z,101062.91
2022-08-25T20:35:59.396Z,101068.56
2022-08-25T20:38:29.700Z,101063.63
2022-08-25T20:40:56.460Z,101065.09
2022-08-25T20:43:24.246Z,101069.75
2022-08-25T20:46:02.264Z,101068.09
2022-08-25T20:48:28.957Z,101071.09
2022-08-25T20:50:57.749Z,101063.75
2022-08-25T20:53:25.396Z,101075.88
2022-08-25T20:55:51.987Z,101074.63
2022-08-25T20:58:18.908Z,101081.19
2022-08-25T21:00:45.841Z,101083.69
2022-08-25T21:03:12.764Z,101091.31
2022-08-25T21:05:40.936Z,101087.31
2022-08-25T21:08:07.953Z,101088.56
2022-08-25T21:10:34.892Z,101090.41
2022-08-25T21:13:01.547Z,101086.91
2022-08-25T21:15:28.335Z,101091.44
2022-08-25T21:17:55.544Z,101090.06
2022-08-25T21:20:23.821Z,101093.56
2022-08-25T21:22:51.076Z,101094.25
2022-08-25T21:25:27.402Z,101096.81
2022-08-25T21:27:53.895Z,101093.94
2022-08-25T21:30:20.542Z,101099.50
2022-08-25T21:32:53.442Z,101093.59
2022-08-25T21:35:21.360Z,101105.53
2022-08-25T21:37:53.273Z,101104.13
2022-08-25T21:40:20.971Z,101104.41
2022-08-25T21:42:48.974Z,101106.56
2022-08-25T21:45:15.746Z,101109.09
2022-08-25T21:47:42.794Z,101111.25
2022-08-25T21:50:13.083Z,101112.72
2022-08-25T21:52:39.694Z,101111.69
2022-08-25T21:55:09.288Z,101112.13
2022-08-25T21:57:43.289Z,101114.22
2022-08-25T22:00:11.589Z,101111.47
2022-08-25T22:02:38.564Z,101113.78
2022-08-25T22:05:09.240Z,101115.69
2022-08-25T22:07:40.396Z,101104.94
2022-08-25T22:10:09.481Z,101109.97
2022-08-25T22:12:43.580Z,101114.00
2022-08-25T22:15:12.485Z,101116.31
2022-08-25T22:17:40.508Z,101116.31
2022-08-25T22:20:07.933Z,101117.19
2022-08-25T22:22:34.475Z,101113.81
2022-08-25T22:25:01.104Z,101114.00
2022-08-25T22:27:27.753Z,101116.75
2022-08-25T22:29:54.369Z,101118.00
2022-08-25T22:32:20.935Z,101115.88
2022-08-25T22:34:48.273Z,101118.63
2022-08-25T22:37:17.924Z,101117.59
2022-08-25T22:39:48.156Z,101125.44
2022-08-25T22:42:15.097Z,101116.50
2022-08-25T22:44:42.461Z,101113.38
2022-08-25T22:47:10.600Z,101114.22
2022-08-25T22:49:39.305Z,101119.72
2022-08-25T22:52:07.451Z,101110.81
2022-08-25T22:54:38.112Z,101106.19
2022-08-25T22:57:06.835Z,101102.81
2022-08-25T22:59:34.052Z,101104.69
2022-08-25T23:02:00.674Z,101108.06
2022-08-25T23:04:27.335Z,101098.81
2022-08-25T23:06:53.943Z,101101.97
2022-08-25T23:09:21.256Z,101101.13
2022-08-25T23:11:48.883Z,101090.59
2022-08-25T23:14:18.223Z,101085.31
2022-08-25T23:16:44.998Z,101081.09
2022-08-25T23:19:13.851Z,101083.00
2022-08-25T23:22:00.303Z,101078.56
2022-08-25T23:24:30.066Z,101071.59
2022-08-25T23:26:58.439Z,101075.63
2022-08-25T23:29:25.264Z,101065.72
2022-08-25T23:31:52.034Z,101061.06
2022-08-25T23:34:22.494Z,101063.38
2022-08-25T23:36:49.144Z,101063.59
2022-08-25T23:39:15.953Z,101058.09
2022-08-25T23:41:42.734Z,101061.72
2022-08-25T23:44:11.795Z,101067.41
2022-08-25T23:46:44.494Z,101070.34
2022-08-25T23:49:11.145Z,101065.69
2022-08-25T23:51:38.300Z,101064.44
2022-08-25T23:54:09.598Z,101067.81
2022-08-25T23:56:42.367Z,101066.75
2022-08-25T23:59:11.813Z,101064.44
